Time;durP1;ratioP1;P1;durP2;ratioP2;P2;SDS_P1;SDS_P2;PMS_P1;PMS_P2;Temp;Humidity;BMP_temperature;BMP_pressure;BME280_temperature;BME280_humidity;BME280_pressure;Samples;Min_cycle;Max_cycle;Signal;HPM_P1;HPM_P2
2021/11/25 00:01:19;;;;;;;16.95;10.07;;;;;;;5.75;94.66;100741.84;5064645;28;20378;-73
2021/11/25 00:03:47;;;;;;;13.88;9.45;;;;;;;5.72;94.47;100741.09;5055008;28;20064;-75
2021/11/25 00:06:15;;;;;;;17.10;9.57;;;;;;;5.71;95.06;100742.00;5068007;28;20052;-73
2021/11/25 00:08:42;;;;;;;14.10;9.40;;;;;;;5.77;94.64;100742.66;5061191;28;20050;-73
2021/11/25 00:11:09;;;;;;;16.95;10.40;;;;;;;5.77;94.57;100739.19;5046914;28;20044;-76
2021/11/25 00:13:36;;;;;;;15.68;10.20;;;;;;;5.74;94.84;100739.28;5047506;28;20079;-75
2021/11/25 00:16:04;;;;;;;13.73;9.07;;;;;;;5.76;94.77;100737.47;5042946;28;20059;-74
2021/11/25 00:18:32;;;;;;;17.20;10.32;;;;;;;5.74;94.51;100734.06;5061672;28;20037;-72
2021/11/25 00:20:59;;;;;;;17.23;8.88;;;;;;;5.73;94.15;100735.84;5027019;28;20606;-74
2021/11/25 00:23:26;;;;;;;12.07;8.25;;;;;;;5.75;93.49;100723.56;5044471;28;20078;-76
2021/11/25 00:25:54;;;;;;;12.57;9.10;;;;;;;5.80;92.19;100726.84;5048976;28;20055;-74
2021/11/25 00:28:21;;;;;;;11.48;8.43;;;;;;;5.83;91.75;100718.91;5031106;28;20047;-74
2021/11/25 00:30:48;;;;;;;12.98;8.07;;;;;;;5.77;91.33;100718.28;5045107;28;20479;-77
2021/11/25 00:33:15;;;;;;;13.50;7.90;;;;;;;5.73;91.19;100714.09;5045932;28;20045;-75
2021/11/25 00:35:43;;;;;;;10.73;7.47;;;;;;;5.74;90.90;100707.94;5046194;28;20047;-75
2021/11/25 00:38:10;;;;;;;11.20;7.82;;;;;;;5.72;90.32;100704.53;5051611;28;20155;-77
2021/11/25 00:40:37;;;;;;;11.32;7.45;;;;;;;5.62;90.83;100700.56;5046851;28;20415;-75
2021/11/25 00:43:04;;;;;;;9.07;6.55;;;;;;;5.57;91.00;100698.97;5052280;28;20147;-76
2021/11/25 00:45:32;;;;;;;11.82;6.90;;;;;;;5.62;90.86;100692.72;5051473;28;20072;-74
2021/11/25 00:47:59;;;;;;;9.45;6.60;;;;;;;5.63;89.90;100690.09;5035230;28;20384;-75
2021/11/25 00:50:26;;;;;;;9.02;6.78;;;;;;;5.65;90.17;100685.63;5062047;28;20041;-75
2021/11/25 00:52:54;;;;;;;9.85;6.97;;;;;;;5.61;89.47;100685.81;5035495;28;20414;-74
2021/11/25 00:55:21;;;;;;;9.13;6.72;;;;;;;5.57;88.89;100683.31;5014689;28;20455;-75
2021/11/25 00:57:49;;;;;;;9.32;6.35;;;;;;;5.59;87.58;100676.28;5050694;28;20049;-76
2021/11/25 01:00:18;;;;;;;7.75;5.75;;;;;;;5.54;85.63;100674.75;5045725;28;20098;-75
2021/11/25 01:02:46;;;;;;;6.15;4.40;;;;;;;5.54;84.14;100677.38;5050635;28;20123;-75
2021/11/25 01:05:14;;;;;;;6.15;4.55;;;;;;;5.54;83.38;100674.75;5051806;28;20053;-75
2021/11/25 01:07:42;;;;;;;5.97;4.43;;;;;;;5.52;82.04;100666.97;5066198;28;20123;-75
2021/11/25 01:10:12;;;;;;;5.95;4.10;;;;;;;5.58;82.40;100664.13;5065751;28;20072;-75
2021/11/25 01:12:41;;;;;;;5.90;3.92;;;;;;;5.49;81.87;100656.66;5030767;28;20117;-74
2021/11/25 01:15:11;;;;;;;4.88;4.07;;;;;;;5.48;81.97;100657.53;5029585;28;20049;-74
2021/11/25 01:17:39;;;;;;;6.43;4.25;;;;;;;5.52;81.89;100650.44;5050964;28;20179;-75
2021/11/25 01:20:10;;;;;;;6.10;5.00;;;;;;;5.54;81.01;100646.88;5064296;28;20081;-75
2021/11/25 01:22:38;;;;;;;6.50;5.40;;;;;;;5.52;82.02;100646.06;5050181;28;20132;-73
2021/11/25 01:25:06;;;;;;;6.25;4.68;;;;;;;5.50;82.32;100637.47;5048079;28;20473;-74
2021/11/25 01:27:33;;;;;;;7.53;5.70;;;;;;;5.48;83.09;100641.88;5050527;28;20045;-75
2021/11/25 01:30:01;;;;;;;6.78;5.13;;;;;;;5.50;82.91;100640.06;5041549;28;20152;-74
2021/11/25 01:32:28;;;;;;;6.55;4.38;;;;;;;5.54;82.12;100638.19;5063068;28;20040;-74
2021/11/25 01:34:56;;;;;;;6.20;5.18;;;;;;;5.49;82.58;100632.28;5047468;28;20052;-75
2021/11/25 01:37:25;;;;;;;6.40;4.80;;;;;;;5.49;82.51;100622.72;5068761;28;20131;-73
2021/11/25 01:39:52;;;;;;;6.43;4.80;;;;;;;5.46;82.84;100622.81;5046700;28;20064;-75
2021/11/25 01:42:20;;;;;;;6.47;4.57;;;;;;;5.52;82.55;100614.75;5016789;28;20235;-74
2021/11/25 01:44:47;;;;;;;5.63;4.13;;;;;;;5.52;82.13;100612.13;5028905;28;20143;-75
2021/11/25 01:47:14;;;;;;;6.22;4.60;;;;;;;5.48;81.70;100610.53;5033841;28;20144;-75
2021/11/25 01:49:41;;;;;;;7.18;4.95;;;;;;;5.50;81.58;100602.66;5045492;28;20044;-75
2021/11/25 01:52:09;;;;;;;9.70;5.43;;;;;;;5.51;82.16;100602.59;5082263;28;20044;-74
2021/11/25 01:54:38;;;;;;;6.18;4.72;;;;;;;5.50;82.15;100600.06;5046902;28;20352;-75
2021/11/25 01:57:06;;;;;;;5.55;4.50;;;;;;;5.47;81.67;100587.97;5033974;28;20043;-74
2021/11/25 01:59:36;;;;;;;6.50;4.15;;;;;;;5.45;81.68;100584.56;5062125;28;20135;-75
2021/11/25 02:02:04;;;;;;;5.15;4.35;;;;;;;5.43;81.01;100585.53;5049690;28;20131;-75
2021/11/25 02:04:32;;;;;;;5.72;3.88;;;;;;;5.38;80.29;100580.47;5062054;28;20051;-75
2021/11/25 02:06:59;;;;;;;6.22;4.00;;;;;;;5.37;80.54;100581.41;5051516;28;20044;-75
2021/11/25 02:09:27;;;;;;;4.55;3.63;;;;;;;5.38;81.09;100580.47;5046483;28;20045;-75
2021/11/25 02:11:54;;;;;;;6.15;5.22;;;;;;;5.47;81.11;100580.13;5064699;28;20156;-76
2021/11/25 02:14:21;;;;;;;7.68;5.80;;;;;;;5.38;81.85;100575.25;5054024;28;20045;-74
2021/11/25 02:16:50;;;;;;;7.72;6.20;;;;;;;5.36;82.08;100571.00;5066968;28;20037;-77
2021/11/25 02:19:18;;;;;;;8.15;6.60;;;;;;;5.34;81.99;100565.84;5044964;28;20032;-74
2021/11/25 02:21:45;;;;;;;7.88;6.72;;;;;;;5.38;81.69;100559.59;5052060;28;20137;-74
2021/11/25 02:24:13;;;;;;;8.82;7.18;;;;;;;5.42;80.95;100553.34;5042425;28;20048;-74
2021/11/25 02:26:40;;;;;;;7.82;6.85;;;;;;;5.35;80.47;100551.88;5066086;28;20040;-74
2021/11/25 02:29:07;;;;;;;10.93;7.50;;;;;;;5.30;80.52;100549.44;5065000;28;20139;-74
2021/11/25 02:31:34;;;;;;;9.73;7.10;;;;;;;5.30;80.53;100543.38;5048430;28;20210;-76
2021/11/25 02:34:02;;;;;;;10.65;7.72;;;;;;;5.22;81.04;100541.06;5049132;28;20520;-76
2021/11/25 02:36:29;;;;;;;10.27;7.68;;;;;;;5.23;80.06;100537.56;5066280;28;20056;-74
2021/11/25 02:38:58;;;;;;;13.00;8.82;;;;;;;5.12;80.37;100537.09;5062084;28;20064;-76
2021/11/25 02:41:28;;;;;;;13.75;9.73;;;;;;;5.13;80.43;100532.72;5041078;28;20041;-75
2021/11/25 02:43:57;;;;;;;12.98;8.75;;;;;;;5.09;81.00;100529.41;5063831;28;20044;-75
2021/11/25 02:46:24;;;;;;;11.45;9.20;;;;;;;5.03;81.12;100519.16;5032451;28;20068;-75
2021/11/25 02:48:54;;;;;;;11.77;9.52;;;;;;;5.07;81.37;100513.78;5061581;28;20036;-74
2021/11/25 02:51:25;;;;;;;11.48;9.32;;;;;;;5.08;80.56;100509.41;5045255;28;20044;-76
2021/11/25 02:53:57;;;;;;;13.70;9.50;;;;;;;5.05;80.68;100507.78;5047210;28;20241;-76
2021/11/25 02:56:30;;;;;;;14.65;10.68;;;;;;;5.02;81.56;100500.06;5058659;28;20033;-75
2021/11/25 02:59:00;;;;;;;12.52;10.75;;;;;;;5.00;80.37;100503.66;5064487;28;20048;-75
2021/11/25 03:01:36;;;;;;;16.02;11.07;;;;;;;5.02;81.01;100502.69;5047662;28;20119;-76
2021/11/25 03:04:05;;;;;;;13.85;11.07;;;;;;;4.98;79.74;100498.47;5045264;28;20052;-76
2021/11/25 03:06:33;;;;;;;14.25;11.85;;;;;;;4.88;80.43;100497.13;5032177;28;20123;-75
2021/11/25 03:09:03;;;;;;;17.02;11.85;;;;;;;4.85;80.91;100483.34;5047184;28;20045;-75
2021/11/25 03:11:31;;;;;;;16.73;11.77;;;;;;;4.83;81.34;100483.41;5046909;28;20118;-75
2021/11/25 03:14:03;;;;;;;16.70;12.88;;;;;;;4.85;80.77;100484.19;5029478;28;20139;-75
2021/11/25 03:16:32;;;;;;;17.65;14.23;;;;;;;4.93;79.75;100483.91;5048305;28;20129;-75
2021/11/25 03:19:02;;;;;;;20.38;14.90;;;;;;;4.88;79.17;100483.25;5045526;28;20048;-76
2021/11/25 03:21:29;;;;;;;24.50;16.17;;;;;;;4.86;78.38;100472.84;5045133;28;20121;-76
2021/11/25 03:23:59;;;;;;;18.55;15.30;;;;;;;4.85;77.85;100478.97;5029703;28;20048;-76
2021/11/25 03:26:29;;;;;;;16.50;14.73;;;;;;;4.90;76.83;100474.44;5062639;28;20087;-74
2021/11/25 03:29:01;;;;;;;23.75;15.80;;;;;;;4.89;76.70;100470.13;5047862;28;20602;-75
2021/11/25 03:31:32;;;;;;;18.40;14.77;;;;;;;4.85;76.19;100468.53;5044817;28;20045;-75
2021/11/25 03:34:00;;;;;;;18.75;15.38;;;;;;;4.81;77.12;100470.41;5047740;28;20147;-76
2021/11/25 03:36:29;;;;;;;18.52;15.60;;;;;;;4.78;76.74;100473.16;5032768;28;20128;-76
2021/11/25 03:38:57;;;;;;;17.75;15.02;;;;;;;4.87;75.69;100468.50;5047484;28;20048;-75
2021/11/25 03:41:29;;;;;;;20.67;14.40;;;;;;;4.84;75.01;100461.63;5062590;28;20044;-75
2021/11/25 03:43:58;;;;;;;19.00;14.57;;;;;;;4.79;75.05;100463.56;5029956;28;20067;-77
2021/11/25 03:46:29;;;;;;;17.50;14.45;;;;;;;4.81;74.88;100453.91;5058376;28;20037;-74
2021/11/25 03:48:57;;;;;;;19.17;15.38;;;;;;;4.78;74.73;100451.44;5064617;28;20054;-76
2021/11/25 03:51:25;;;;;;;17.45;14.63;;;;;;;4.77;74.89;100440.16;5025092;28;20052;-74
2021/11/25 03:53:52;;;;;;;20.33;15.43;;;;;;;4.72;74.53;100436.00;5014809;28;20047;-74
2021/11/25 03:56:19;;;;;;;17.88;14.05;;;;;;;4.75;73.94;100430.69;5062905;28;20044;-74
2021/11/25 03:58:47;;;;;;;14.88;12.48;;;;;;;4.70;72.45;100423.03;5032356;28;20055;-75
2021/11/25 04:01:16;;;;;;;15.52;12.68;;;;;;;4.64;72.46;100427.63;5044732;28;20056;-73
2021/11/25 04:03:44;;;;;;;17.42;14.00;;;;;;;4.62;72.30;100419.03;5061452;28;20128;-74
2021/11/25 04:06:12;;;;;;;17.58;13.38;;;;;;;4.64;72.62;100425.91;5046610;28;20507;-75
2021/11/25 04:08:41;;;;;;;17.50;14.20;;;;;;;4.62;72.88;100424.25;5047802;28;20037;-74
2021/11/25 04:11:08;;;;;;;17.92;14.63;;;;;;;4.64;72.54;100423.28;5062104;28;20059;-75
2021/11/25 04:13:38;;;;;;;18.30;13.80;;;;;;;4.57;72.73;100412.22;5049365;28;20045;-75
2021/11/25 04:16:07;;;;;;;19.15;15.40;;;;;;;4.56;72.25;100410.53;5049386;28;20059;-75
2021/11/25 04:18:34;;;;;;;20.38;16.77;;;;;;;4.55;73.79;100421.03;5066386;28;20052;-75
2021/11/25 04:21:04;;;;;;;22.33;17.20;;;;;;;4.53;74.20;100413.25;5049866;28;20040;-75
2021/11/25 04:23:33;;;;;;;26.48;18.20;;;;;;;4.47;75.57;100410.88;5068911;28;20059;-76
2021/11/25 04:26:03;;;;;;;22.83;18.13;;;;;;;4.47;76.29;100420.44;5067920;28;20058;-74
2021/11/25 04:28:30;;;;;;;26.23;20.25;;;;;;;4.52;75.01;100410.69;5049486;28;20140;-73
2021/11/25 04:36:52;;;;;;;27.02;21.42;;;;;;;4.38;77.73;100399.94;4954927;28;20870;-75
2021/11/25 04:39:19;;;;;;;25.33;19.55;;;;;;;4.36;76.96;100389.56;5007703;28;20142;-75
2021/11/25 04:41:48;;;;;;;29.33;21.95;;;;;;;4.35;77.28;100393.06;5034748;28;20137;-75
2021/11/25 04:44:17;;;;;;;30.23;22.08;;;;;;;4.28;77.18;100389.84;5048453;28;20055;-75
2021/11/25 04:46:45;;;;;;;30.70;20.75;;;;;;;4.27;77.56;100390.75;5033931;28;20074;-75
2021/11/25 04:49:13;;;;;;;26.85;21.08;;;;;;;4.34;76.77;100390.53;5063239;28;20052;-75
2021/11/25 04:51:41;;;;;;;27.15;21.50;;;;;;;4.30;77.10;100392.41;5031976;28;20066;-75
2021/11/25 04:54:09;;;;;;;34.42;23.58;;;;;;;4.23;77.65;100389.19;5047031;28;20041;-75
2021/11/25 04:56:36;;;;;;;31.42;22.83;;;;;;;4.26;77.26;100388.19;5030145;28;20136;-74
2021/11/25 04:59:03;;;;;;;33.75;22.92;;;;;;;4.22;76.98;100386.63;5048195;28;20059;-76
2021/11/25 05:01:32;;;;;;;29.10;21.55;;;;;;;4.22;76.64;100379.63;5030417;28;20053;-74
2021/11/25 05:04:01;;;;;;;32.45;24.33;;;;;;;4.18;76.08;100377.22;5034250;28;20037;-74
2021/11/25 05:06:28;;;;;;;30.90;23.38;;;;;;;4.20;75.92;100376.25;5071540;28;20040;-75
2021/11/25 05:08:58;;;;;;;30.45;23.27;;;;;;;4.17;76.08;100376.34;5050912;28;20132;-77
2021/11/25 05:11:26;;;;;;;32.08;22.98;;;;;;;4.20;76.19;100370.19;5084802;28;20063;-75
2021/11/25 05:13:54;;;;;;;33.15;23.25;;;;;;;4.17;76.47;100370.31;5053331;28;20036;-75
2021/11/25 05:16:22;;;;;;;33.20;23.80;;;;;;;4.18;77.11;100364.19;5055804;28;20123;-75
2021/11/25 05:18:49;;;;;;;32.60;23.85;;;;;;;4.19;76.96;100352.88;5070695;28;20044;-76
2021/11/25 05:21:16;;;;;;;33.58;24.65;;;;;;;4.18;76.31;100354.59;5073373;28;20048;-75
2021/11/25 05:23:45;;;;;;;29.92;23.10;;;;;;;4.19;77.06;100352.88;5049716;28;20052;-75
2021/11/25 05:26:12;;;;;;;31.80;23.58;;;;;;;4.18;77.83;100348.53;5053345;28;20048;-75
2021/11/25 05:28:41;;;;;;;32.45;24.77;;;;;;;4.22;77.42;100344.91;5070216;28;20176;-75
2021/11/25 05:31:10;;;;;;;32.03;23.13;;;;;;;4.17;77.06;100349.47;5037381;28;20050;-75
2021/11/25 05:33:41;;;;;;;33.92;25.08;;;;;;;4.21;77.06;100346.69;5053261;28;20080;-74
2021/11/25 05:36:14;;;;;;;30.60;23.45;;;;;;;4.21;77.21;100354.50;5072250;28;20076;-74
2021/11/25 05:38:42;;;;;;;31.48;23.17;;;;;;;4.23;77.56;100339.69;5071025;28;20052;-74
2021/11/25 05:41:10;;;;;;;30.42;23.90;;;;;;;4.15;77.99;100349.53;5044449;28;20060;-76
2021/11/25 05:43:37;;;;;;;31.77;23.73;;;;;;;4.17;76.79;100345.09;5045536;28;20148;-76
2021/11/25 05:46:13;;;;;;;29.02;22.08;;;;;;;4.12;77.08;100346.19;5047104;28;20045;-74
2021/11/25 05:48:44;;;;;;;28.35;22.13;;;;;;;4.12;76.98;100334.00;5032416;28;20036;-75
2021/11/25 05:51:14;;;;;;;32.75;23.38;;;;;;;4.12;77.24;100333.16;5025115;28;20054;-78
2021/11/25 05:53:42;;;;;;;29.27;22.38;;;;;;;4.17;76.56;100331.22;5067077;28;20045;-76
2021/11/25 05:56:10;;;;;;;32.25;23.42;;;;;;;4.07;77.38;100333.31;5068216;28;20083;-75
2021/11/25 05:58:39;;;;;;;34.58;24.80;;;;;;;4.11;78.00;100334.06;5067930;28;20039;-75
2021/11/25 06:01:07;;;;;;;34.15;24.88;;;;;;;4.14;78.71;100326.13;5078732;28;20121;-75
2021/11/25 06:03:37;;;;;;;33.80;24.27;;;;;;;4.10;79.14;100327.13;5048954;28;20574;-75
2021/11/25 06:06:04;;;;;;;35.53;24.40;;;;;;;4.09;79.34;100325.44;5064755;28;20041;-76
2021/11/25 06:08:31;;;;;;;33.38;25.13;;;;;;;4.14;79.12;100323.50;5044542;28;20135;-75
2021/11/25 06:11:02;;;;;;;32.08;23.63;;;;;;;4.03;78.94;100316.94;5045748;28;20044;-76
2021/11/25 06:13:30;;;;;;;32.20;24.58;;;;;;;4.05;79.10;100319.50;5049336;28;20061;-73
2021/11/25 06:15:57;;;;;;;31.75;24.33;;;;;;;4.11;79.91;100313.22;5030367;28;20143;-79
2021/11/25 06:18:26;;;;;;;35.05;25.30;;;;;;;4.05;80.05;100309.94;5029325;28;20499;-75
2021/11/25 06:21:05;;;;;;;33.67;25.98;;;;;;;4.02;80.75;100309.22;5047772;28;20072;-75
2021/11/25 06:23:36;;;;;;;33.20;25.38;;;;;;;4.05;80.85;100302.13;5046881;28;20063;-76
2021/11/25 06:26:03;;;;;;;32.30;23.95;;;;;;;4.03;80.25;100301.31;5047755;28;20132;-74
2021/11/25 06:28:32;;;;;;;33.58;25.33;;;;;;;3.96;80.79;100306.81;5031242;28;20136;-76
2021/11/25 06:30:59;;;;;;;33.83;24.95;;;;;;;3.91;80.97;100312.19;5061546;28;20479;-74
2021/11/25 06:33:26;;;;;;;36.40;25.60;;;;;;;3.94;81.14;100306.88;5064755;28;20135;-77
2021/11/25 06:35:58;;;;;;;32.70;25.13;;;;;;;3.85;82.31;100296.78;5046605;28;20048;-75
2021/11/25 06:38:26;;;;;;;35.47;25.88;;;;;;;3.83;83.01;100301.22;5048064;28;20143;-75
2021/11/25 06:40:54;;;;;;;32.83;25.40;;;;;;;3.88;81.87;100288.88;5030047;28;20041;-76
2021/11/25 06:43:22;;;;;;;34.90;25.95;;;;;;;3.83;82.54;100295.13;5031710;28;20147;-75
2021/11/25 06:45:50;;;;;;;38.13;26.88;;;;;;;3.85;83.23;100294.19;5029935;28;20041;-77
2021/11/25 06:48:17;;;;;;;36.13;26.52;;;;;;;3.89;82.93;100292.34;5082777;28;20132;-76
2021/11/25 06:50:45;;;;;;;39.40;26.65;;;;;;;3.90;82.08;100288.81;5031691;28;20366;-75
2021/11/25 06:53:12;;;;;;;38.53;26.40;;;;;;;3.89;82.25;100284.53;5064705;28;20059;-77
2021/11/25 06:55:39;;;;;;;33.05;25.85;;;;;;;3.87;82.57;100279.34;5047597;28;20041;-75
2021/11/25 06:58:07;;;;;;;32.78;26.08;;;;;;;3.91;82.20;100278.31;5029983;28;20052;-76
2021/11/25 07:00:34;;;;;;;34.65;26.85;;;;;;;3.98;80.98;100278.97;5064903;28;20053;-75
2021/11/25 07:03:02;;;;;;;33.70;25.15;;;;;;;4.03;81.95;100280.50;5049863;28;20135;-75
2021/11/25 07:05:30;;;;;;;36.05;26.98;;;;;;;3.87;82.38;100274.13;5047066;28;20110;-78
2021/11/25 07:07:57;;;;;;;35.45;26.33;;;;;;;3.86;82.83;100266.38;5032645;28;20048;-75
2021/11/25 07:10:25;;;;;;;37.10;26.75;;;;;;;3.94;82.97;100262.59;5046160;28;20132;-75
2021/11/25 07:12:52;;;;;;;36.63;26.30;;;;;;;3.93;82.70;100271.31;5050045;28;20048;-75
2021/11/25 07:15:21;;;;;;;38.35;26.40;;;;;;;3.97;82.53;100264.25;5047881;28;20076;-76
2021/11/25 07:17:50;;;;;;;35.50;25.52;;;;;;;3.97;82.97;100265.09;5048482;28;20078;-75
2021/11/25 07:20:18;;;;;;;33.63;25.73;;;;;;;4.01;82.70;100255.41;5078239;28;20131;-75
2021/11/25 07:22:45;;;;;;;35.72;25.08;;;;;;;4.05;82.17;100259.56;5049777;28;20136;-75
2021/11/25 07:25:15;;;;;;;33.00;24.13;;;;;;;4.09;81.33;100249.91;5029002;28;20179;-76
2021/11/25 07:27:43;;;;;;;36.65;26.05;;;;;;;4.11;80.71;100243.75;5048915;28;20045;-75
2021/11/25 07:30:13;;;;;;;35.65;25.98;;;;;;;4.07;81.60;100243.00;5062959;28;20395;-77
2021/11/25 07:32:40;;;;;;;32.60;24.92;;;;;;;4.10;81.57;100256.81;5065966;28;20167;-75
2021/11/25 07:35:09;;;;;;;35.90;26.77;;;;;;;4.16;81.74;100254.81;5030243;28;20542;-75
2021/11/25 07:37:36;;;;;;;32.72;24.15;;;;;;;4.18;80.79;100246.94;5049894;28;20502;-76
2021/11/25 07:40:06;;;;;;;32.33;24.42;;;;;;;4.10;81.77;100239.44;5062557;28;20506;-75
2021/11/25 07:42:33;;;;;;;35.63;25.48;;;;;;;4.07;81.61;100237.78;5032179;28;20078;-76
2021/11/25 07:45:01;;;;;;;38.10;25.42;;;;;;;4.03;81.03;100236.22;5046516;28;20674;-75
2021/11/25 07:47:32;;;;;;;35.53;23.88;;;;;;;4.16;81.27;100240.94;5034425;28;20049;-75
2021/11/25 07:50:03;;;;;;;36.75;25.02;;;;;;;4.20;80.68;100234.72;5064682;28;20133;-75
2021/11/25 07:52:31;;;;;;;36.22;25.30;;;;;;;4.15;80.69;100240.09;5053643;28;20159;-76
2021/11/25 07:54:58;;;;;;;33.78;25.60;;;;;;;4.15;81.57;100240.09;5067373;28;20059;-75
2021/11/25 07:57:26;;;;;;;33.40;24.40;;;;;;;4.05;80.71;100234.41;5070459;28;20134;-76
2021/11/25 07:59:54;;;;;;;32.95;25.00;;;;;;;4.02;81.12;100226.69;5049870;28;20043;-77
2021/11/25 08:02:21;;;;;;;37.10;25.48;;;;;;;4.07;80.75;100226.53;5036645;28;20521;-76
2021/11/25 08:04:49;;;;;;;34.72;25.23;;;;;;;4.06;81.19;100217.88;5065323;28;20041;-78
2021/11/25 08:07:16;;;;;;;33.53;23.80;;;;;;;4.16;80.32;100217.50;5053325;28;20071;-77
2021/11/25 08:09:44;;;;;;;35.42;26.17;;;;;;;4.11;80.19;100214.25;5033464;28;20386;-75
2021/11/25 08:12:11;;;;;;;34.72;23.85;;;;;;;4.05;80.82;100208.38;5036231;28;20091;-76
2021/11/25 08:14:39;;;;;;;33.67;24.13;;;;;;;4.05;81.42;100204.88;5026885;28;20399;-75
2021/11/25 08:17:09;;;;;;;35.00;24.42;;;;;;;4.11;81.51;100199.44;5051760;28;20398;-75
2021/11/25 08:19:37;;;;;;;35.30;24.05;;;;;;;4.09;81.61;100192.59;5049330;28;20048;-76
2021/11/25 08:22:05;;;;;;;34.65;25.17;;;;;;;4.15;81.76;100195.81;5036338;28;20048;-75
2021/11/25 08:24:33;;;;;;;41.90;24.85;;;;;;;4.17;81.65;100193.16;5048165;28;20055;-76
2021/11/25 08:27:00;;;;;;;33.03;25.50;;;;;;;4.18;81.40;100192.22;5035553;28;20374;-75
2021/11/25 08:29:28;;;;;;;32.22;24.08;;;;;;;4.24;81.09;100192.84;5032136;28;20590;-75
2021/11/25 08:31:55;;;;;;;36.42;24.48;;;;;;;4.25;80.84;100198.91;5068365;28;20132;-75
2021/11/25 08:34:23;;;;;;;35.58;24.58;;;;;;;4.26;80.78;100196.22;5041720;28;20057;-75
2021/11/25 08:36:51;;;;;;;33.38;24.75;;;;;;;4.32;81.76;100201.22;5052933;28;20132;-75
2021/11/25 08:39:19;;;;;;;35.63;24.25;;;;;;;4.30;80.82;100204.78;5067074;28;20074;-76
2021/11/25 08:41:46;;;;;;;34.85;25.00;;;;;;;4.23;80.75;100195.50;5082890;28;20060;-75
2021/11/25 08:44:13;;;;;;;32.83;23.98;;;;;;;4.20;81.47;100188.66;5063848;28;20155;-77
2021/11/25 08:46:41;;;;;;;35.67;24.05;;;;;;;4.31;80.92;100189.06;5035633;28;20051;-76
2021/11/25 08:49:08;;;;;;;52.28;26.60;;;;;;;4.34;81.15;100184.66;5046879;28;20315;-78
2021/11/25 08:51:35;;;;;;;34.92;24.92;;;;;;;4.36;81.38;100175.84;5034618;28;20040;-74
2021/11/25 08:54:03;;;;;;;34.30;24.05;;;;;;;4.38;79.91;100187.09;5067631;28;20128;-76
2021/11/25 08:56:30;;;;;;;31.27;23.10;;;;;;;4.34;79.49;100182.06;5050204;28;20048;-75
2021/11/25 08:58:58;;;;;;;34.80;23.85;;;;;;;4.29;80.03;100187.47;5049006;28;20067;-76
2021/11/25 09:01:25;;;;;;;34.15;24.42;;;;;;;4.30;80.66;100184.78;5033909;28;20042;-75
2021/11/25 09:03:53;;;;;;;32.63;24.42;;;;;;;4.14;80.17;100193.25;5049980;28;20554;-78
2021/11/25 09:06:20;;;;;;;36.38;24.70;;;;;;;4.20;80.45;100188.66;5032876;28;20131;-77
2021/11/25 09:08:48;;;;;;;35.33;25.10;;;;;;;4.21;80.46;100179.94;5033374;28;20036;-76
2021/11/25 09:11:15;;;;;;;33.75;24.67;;;;;;;4.29;80.45;100179.63;5032652;28;20049;-76
2021/11/25 09:13:43;;;;;;;35.50;25.25;;;;;;;4.31;80.56;100178.66;5047554;28;20470;-75
2021/11/25 09:16:11;;;;;;;35.17;24.38;;;;;;;4.37;80.70;100174.09;5034072;28;20135;-75
2021/11/25 09:18:38;;;;;;;32.72;22.92;;;;;;;4.34;80.74;100172.47;5067596;28;20044;-76
2021/11/25 09:21:06;;;;;;;33.00;24.25;;;;;;;4.36;79.80;100172.41;5016706;28;20488;-74
2021/11/25 09:23:37;;;;;;;35.95;23.52;;;;;;;4.28;79.28;100175.34;5031541;28;20048;-75
2021/11/25 09:26:04;;;;;;;34.40;23.88;;;;;;;4.31;79.55;100170.84;5033173;28;20127;-74
2021/11/25 09:28:34;;;;;;;34.20;25.17;;;;;;;4.39;79.74;100170.53;5034125;28;20134;-75
2021/11/25 09:31:01;;;;;;;35.50;25.63;;;;;;;4.41;79.91;100167.84;5066724;28;20439;-75
2021/11/25 09:33:29;;;;;;;36.67;26.65;;;;;;;4.44;80.40;100165.13;5064328;28;20100;-75
2021/11/25 09:35:56;;;;;;;31.40;23.40;;;;;;;4.31;80.07;100156.97;5048674;28;20119;-74
2021/11/25 09:38:24;;;;;;;29.85;23.48;;;;;;;4.25;79.98;100167.66;5060435;28;20143;-77
2021/11/25 09:40:51;;;;;;;31.45;21.75;;;;;;;4.19;79.90;100168.75;5027081;28;20398;-76
2021/11/25 09:43:24;;;;;;;36.50;24.50;;;;;;;4.19;80.10;100163.53;5065207;28;20086;-77
2021/11/25 09:45:52;;;;;;;30.23;22.70;;;;;;;4.23;80.06;100161.63;5029863;28;20189;-75
2021/11/25 09:48:23;;;;;;;33.60;23.73;;;;;;;4.21;80.04;100155.66;5063969;28;20044;-75
2021/11/25 09:50:52;;;;;;;34.40;23.65;;;;;;;4.27;80.13;100151.00;5042028;28;20036;-75
2021/11/25 09:53:22;;;;;;;34.17;25.23;;;;;;;4.34;79.55;100146.41;5064969;28;20041;-77
2021/11/25 09:55:55;;;;;;;31.70;23.75;;;;;;;4.27;79.84;100142.34;5032285;28;20135;-75
2021/11/25 09:58:26;;;;;;;31.98;21.85;;;;;;;4.18;79.34;100140.97;5047715;28;20598;-75
2021/11/25 10:01:04;;;;;;;33.30;23.20;;;;;;;4.17;79.11;100134.06;5064731;28;20044;-74
2021/11/25 10:03:37;;;;;;;33.60;22.73;;;;;;;4.22;80.54;100129.50;5064840;28;20056;-75
2021/11/25 10:06:06;;;;;;;32.30;24.02;;;;;;;4.34;80.07;100122.97;5064790;28;20060;-74
2021/11/25 10:08:43;;;;;;;31.27;24.13;;;;;;;4.41;79.77;100115.72;5045621;28;20075;-76
2021/11/25 10:11:25;;;;;;;33.70;23.23;;;;;;;4.47;79.58;100113.72;5048171;28;20169;-76
2021/11/25 10:14:03;;;;;;;30.95;23.75;;;;;;;4.49;79.72;100106.69;5048602;28;20352;-74
2021/11/25 10:16:37;;;;;;;33.40;24.40;;;;;;;4.51;79.83;100107.47;5049074;28;20586;-76
2021/11/25 10:19:17;;;;;;;33.50;24.10;;;;;;;4.56;80.54;100102.91;5048293;28;20156;-75
2021/11/25 10:21:52;;;;;;;33.03;21.85;;;;;;;4.51;80.74;100098.81;5065392;28;20036;-75
2021/11/25 10:24:39;;;;;;;36.35;24.15;;;;;;;4.40;82.96;100096.66;5047649;28;20057;-74
2021/11/25 10:27:23;;;;;;;32.40;23.27;;;;;;;4.44;82.58;100092.16;5063513;28;20052;-76
2021/11/25 10:30:09;;;;;;;35.10;25.75;;;;;;;4.51;82.19;100089.22;5065341;28;20101;-76
2021/11/25 10:32:38;;;;;;;31.67;23.73;;;;;;;4.41;82.43;100087.91;5040725;28;20478;-75
2021/11/25 10:35:28;;;;;;;32.15;24.00;;;;;;;4.31;83.30;100092.66;5046701;28;20051;-75
2021/11/25 10:40:27;;;;;;;34.13;23.83;;;;;;;4.22;82.85;100087.00;5046143;28;20120;-74
2021/11/25 10:42:56;;;;;;;39.00;25.25;;;;;;;4.12;83.54;100081.31;5032931;28;20040;-74
2021/11/25 10:45:23;;;;;;;37.20;24.92;;;;;;;4.18;83.95;100080.22;5027564;28;20075;-76
2021/11/25 10:47:59;;;;;;;37.85;24.98;;;;;;;4.27;84.62;100085.03;5017678;28;20045;-76
2021/11/25 10:50:33;;;;;;;32.50;24.23;;;;;;;4.28;82.42;100086.75;5044943;28;20043;-76
2021/11/25 10:53:04;;;;;;;34.30;22.90;;;;;;;4.14;82.78;100083.84;5064169;28;20071;-77
2021/11/25 10:55:34;;;;;;;30.80;23.17;;;;;;;4.07;82.66;100085.88;5045193;28;20044;-77
2021/11/25 10:58:03;;;;;;;31.77;22.67;;;;;;;4.12;81.72;100085.69;5065290;28;20040;-78
2021/11/25 11:00:36;;;;;;;31.13;22.30;;;;;;;4.02;82.23;100085.22;5044152;28;20040;-75
2021/11/25 11:03:08;;;;;;;38.47;23.85;;;;;;;3.95;83.69;100078.53;5048653;28;20082;-76
2021/11/25 11:06:01;;;;;;;31.70;23.23;;;;;;;3.95;83.48;100074.19;5063423;28;20048;-77
2021/11/25 11:08:50;;;;;;;29.80;21.67;;;;;;;3.89;84.78;100071.84;5048226;28;20052;-77
2021/11/25 11:11:19;;;;;;;35.63;23.40;;;;;;;3.90;84.20;100068.31;5040615;28;20055;-75
2021/11/25 11:14:14;;;;;;;29.52;21.40;;;;;;;4.03;83.81;100061.69;5049206;28;20044;-75
2021/11/25 11:16:53;;;;;;;30.27;21.40;;;;;;;4.01;83.48;100058.31;5048381;28;20044;-76
2021/11/25 11:19:23;;;;;;;33.10;23.38;;;;;;;4.03;83.98;100060.84;5028699;28;20040;-75
2021/11/25 11:21:53;;;;;;;32.47;22.65;;;;;;;4.17;84.56;100061.13;5044669;28;20131;-75
2021/11/25 11:24:23;;;;;;;30.10;22.25;;;;;;;4.24;83.48;100056.53;5058009;28;20051;-74
2021/11/25 11:27:02;;;;;;;34.72;24.05;;;;;;;4.22;84.10;100046.16;5048365;28;20109;-78
2021/11/25 11:29:32;;;;;;;33.25;23.38;;;;;;;4.22;83.87;100048.75;5043863;28;20053;-75
2021/11/25 11:32:05;;;;;;;36.55;25.15;;;;;;;4.22;84.20;100051.34;5029543;28;20080;-75
2021/11/25 11:34:33;;;;;;;35.63;24.73;;;;;;;4.18;83.89;100039.38;5025474;28;20128;-77
2021/11/25 11:37:02;;;;;;;39.88;26.83;;;;;;;4.19;83.29;100051.50;5048716;28;20052;-74